sensor_id;sensor_type;location;lat;lon;timestamp;P1;P2;P0
37290;PMS5003;23175;-33.706;151.094;2023-04-24T00:00:13;0;0;
37290;PMS5003;23175;-33.706;151.094;2023-04-24T00:02:44;0;0;
37290;PMS5003;23175;-33.706;151.094;2023-04-24T00:05:15;3;2;
37290;PMS5003;23175;-33.706;151.094;2023-04-24T00:07:45;0;0;
37290;PMS5003;23175;-33.706;151.094;2023-04-24T00:10:16;2;1;
37290;PMS5003;23175;-33.706;151.094;2023-04-24T00:12:46;4;1;
37290;PMS5003;23175;-33.706;151.094;2023-04-24T00:15:16;5;2;
37290;PMS5003;23175;-33.706;151.094;2023-04-24T00:17:46;0;0;
37290;PMS5003;23175;-33.706;151.094;2023-04-24T00:20:16;0;0;
37290;PMS5003;23175;-33.706;151.094;2023-04-24T00:22:46;3;3;
37290;PMS5003;23175;-33.706;151.094;2023-04-24T00:25:17;1;1;
37290;PMS5003;23175;-33.706;151.094;2023-04-24T00:27:47;6;3;
37290;PMS5003;23175;-33.706;151.094;2023-04-24T00:30:18;1;1;
37290;PMS5003;23175;-33.706;151.094;2023-04-24T00:32:48;2;0;
37290;PMS5003;23175;-33.706;151.094;2023-04-24T00:35:18;0;0;
37290;PMS5003;23175;-33.706;151.094;2023-04-24T00:37:48;1;1;
37290;PMS5003;23175;-33.706;151.094;2023-04-24T00:40:19;0;0;
37290;PMS5003;23175;-33.706;151.094;2023-04-24T00:42:50;2;1;
37290;PMS5003;23175;-33.706;151.094;2023-04-24T00:45:20;1;1;
37290;PMS5003;23175;-33.706;151.094;2023-04-24T00:47:51;2;0;
37290;PMS5003;23175;-33.706;151.094;2023-04-24T00:50:23;2;2;
37290;PMS5003;23175;-33.706;151.094;2023-04-24T00:52:53;1;0;
37290;PMS5003;23175;-33.706;151.094;2023-04-24T00:55:24;1;0;
37290;PMS5003;23175;-33.706;151.094;2023-04-24T00:57:55;0;0;
37290;PMS5003;23175;-33.706;151.094;2023-04-24T01:00:25;1;0;
37290;PMS5003;23175;-33.706;151.094;2023-04-24T01:02:55;1;1;
37290;PMS5003;23175;-33.706;151.094;2023-04-24T01:05:29;3;2;
37290;PMS5003;23175;-33.706;151.094;2023-04-24T01:07:59;1;1;
37290;PMS5003;23175;-33.706;151.094;2023-04-24T01:10:31;2;1;
37290;PMS5003;23175;-33.706;151.094;2023-04-24T01:13:04;2;0;
37290;PMS5003;23175;-33.706;151.094;2023-04-24T01:15:35;0;0;
37290;PMS5003;23175;-33.706;151.094;2023-04-24T01:18:05;3;1;
37290;PMS5003;23175;-33.706;151.094;2023-04-24T01:20:36;0;0;
37290;PMS5003;23175;-33.706;151.094;2023-04-24T01:23:07;1;1;
37290;PMS5003;23175;-33.706;151.094;2023-04-24T01:25:37;1;1;
37290;PMS5003;23175;-33.706;151.094;2023-04-24T01:28:08;2;1;
37290;PMS5003;23175;-33.706;151.094;2023-04-24T01:30:38;1;1;
37290;PMS5003;23175;-33.706;151.094;2023-04-24T01:33:08;1;1;
37290;PMS5003;23175;-33.706;151.094;2023-04-24T01:35:39;1;1;
37290;PMS5003;23175;-33.706;151.094;2023-04-24T01:38:10;2;1;
37290;PMS5003;23175;-33.706;151.094;2023-04-24T01:40:40;3;0;
37290;PMS5003;23175;-33.706;151.094;2023-04-24T01:43:12;6;3;
37290;PMS5003;23175;-33.706;151.094;2023-04-24T01:45:42;1;1;
37290;PMS5003;23175;-33.706;151.094;2023-04-24T01:48:13;1;1;
37290;PMS5003;23175;-33.706;151.094;2023-04-24T01:50:43;1;1;
37290;PMS5003;23175;-33.706;151.094;2023-04-24T01:53:13;1;1;
37290;PMS5003;23175;-33.706;151.094;2023-04-24T01:55:44;1;1;
37290;PMS5003;23175;-33.706;151.094;2023-04-24T01:58:14;1;1;
37290;PMS5003;23175;-33.706;151.094;2023-04-24T02:00:44;0;0;
37290;PMS5003;23175;-33.706;151.094;2023-04-24T02:03:14;2;1;
37290;PMS5003;23175;-33.706;151.094;2023-04-24T02:05:44;1;0;
37290;PMS5003;23175;-33.706;151.094;2023-04-24T02:08:14;1;1;
37290;PMS5003;23175;-33.706;151.094;2023-04-24T02:10:44;0;0;
37290;PMS5003;23175;-33.706;151.094;2023-04-24T02:13:14;1;1;
37290;PMS5003;23175;-33.706;151.094;2023-04-24T02:15:45;1;1;
37290;PMS5003;23175;-33.706;151.094;2023-04-24T02:18:15;0;0;
37290;PMS5003;23175;-33.706;151.094;2023-04-24T02:20:46;3;3;
37290;PMS5003;23175;-33.706;151.094;2023-04-24T02:23:16;2;2;
37290;PMS5003;23175;-33.706;151.094;2023-04-24T02:25:46;6;2;
37290;PMS5003;23175;-33.706;151.094;2023-04-24T02:28:16;4;2;
37290;PMS5003;23175;-33.706;151.094;2023-04-24T02:30:46;2;2;
37290;PMS5003;23175;-33.706;151.094;2023-04-24T02:33:17;3;1;
37290;PMS5003;23175;-33.706;151.094;2023-04-24T02:35:47;2;1;
37290;PMS5003;23175;-33.706;151.094;2023-04-24T02:38:17;2;1;
37290;PMS5003;23175;-33.706;151.094;2023-04-24T02:40:48;7;7;
37290;PMS5003;23175;-33.706;151.094;2023-04-24T02:43:18;6;6;
37290;PMS5003;23175;-33.706;151.094;2023-04-24T02:45:48;2;2;
37290;PMS5003;23175;-33.706;151.094;2023-04-24T02:48:18;2;2;
37290;PMS5003;23175;-33.706;151.094;2023-04-24T02:50:48;5;2;
37290;PMS5003;23175;-33.706;151.094;2023-04-24T02:53:19;2;2;
37290;PMS5003;23175;-33.706;151.094;2023-04-24T02:56:00;3;1;
37290;PMS5003;23175;-33.706;151.094;2023-04-24T02:58:30;1;1;
37290;PMS5003;23175;-33.706;151.094;2023-04-24T03:01:00;1;1;
37290;PMS5003;23175;-33.706;151.094;2023-04-24T03:03:30;1;0;
37290;PMS5003;23175;-33.706;151.094;2023-04-24T03:06:00;5;3;
37290;PMS5003;23175;-33.706;151.094;2023-04-24T03:08:31;1;1;
37290;PMS5003;23175;-33.706;151.094;2023-04-24T03:11:01;1;1;
37290;PMS5003;23175;-33.706;151.094;2023-04-24T03:13:32;2;2;
37290;PMS5003;23175;-33.706;151.094;2023-04-24T03:16:02;4;2;
37290;PMS5003;23175;-33.706;151.094;2023-04-24T03:18:32;1;1;
37290;PMS5003;23175;-33.706;151.094;2023-04-24T03:21:03;2;2;
37290;PMS5003;23175;-33.706;151.094;2023-04-24T03:23:33;1;1;
37290;PMS5003;23175;-33.706;151.094;2023-04-24T03:26:03;4;4;
37290;PMS5003;23175;-33.706;151.094;2023-04-24T03:28:33;3;2;
37290;PMS5003;23175;-33.706;151.094;2023-04-24T03:31:03;3;3;
37290;PMS5003;23175;-33.706;151.094;2023-04-24T03:33:32;2;2;
37290;PMS5003;23175;-33.706;151.094;2023-04-24T03:36:03;1;1;
37290;PMS5003;23175;-33.706;151.094;2023-04-24T03:38:33;1;1;
37290;PMS5003;23175;-33.706;151.094;2023-04-24T03:41:03;1;1;
37290;PMS5003;23175;-33.706;151.094;2023-04-24T03:43:34;5;4;
37290;PMS5003;23175;-33.706;151.094;2023-04-24T03:46:04;6;1;
37290;PMS5003;23175;-33.706;151.094;2023-04-24T03:48:34;7;4;
37290;PMS5003;23175;-33.706;151.094;2023-04-24T03:51:04;3;3;
37290;PMS5003;23175;-33.706;151.094;2023-04-24T03:53:34;4;3;
37290;PMS5003;23175;-33.706;151.094;2023-04-24T03:56:05;4;1;
37290;PMS5003;23175;-33.706;151.094;2023-04-24T03:58:36;6;4;
37290;PMS5003;23175;-33.706;151.094;2023-04-24T04:01:06;6;5;
37290;PMS5003;23175;-33.706;151.094;2023-04-24T04:03:36;2;2;
37290;PMS5003;23175;-33.706;151.094;2023-04-24T04:06:06;2;2;
37290;PMS5003;23175;-33.706;151.094;2023-04-24T04:08:35;4;1;
37290;PMS5003;23175;-33.706;151.094;2023-04-24T04:11:06;1;1;
37290;PMS5003;23175;-33.706;151.094;2023-04-24T04:13:35;1;0;
37290;PMS5003;23175;-33.706;151.094;2023-04-24T04:16:06;1;1;
37290;PMS5003;23175;-33.706;151.094;2023-04-24T04:18:37;1;1;
37290;PMS5003;23175;-33.706;151.094;2023-04-24T04:21:07;5;4;
37290;PMS5003;23175;-33.706;151.094;2023-04-24T04:23:37;2;2;
37290;PMS5003;23175;-33.706;151.094;2023-04-24T04:26:07;2;2;
37290;PMS5003;23175;-33.706;151.094;2023-04-24T04:28:36;5;5;
37290;PMS5003;23175;-33.706;151.094;2023-04-24T04:31:06;2;2;
37290;PMS5003;23175;-33.706;151.094;2023-04-24T04:33:37;4;1;
37290;PMS5003;23175;-33.706;151.094;2023-04-24T04:36:06;4;4;
37290;PMS5003;23175;-33.706;151.094;2023-04-24T04:38:37;2;0;
37290;PMS5003;23175;-33.706;151.094;2023-04-24T04:41:07;2;2;
37290;PMS5003;23175;-33.706;151.094;2023-04-24T04:43:37;5;3;
37290;PMS5003;23175;-33.706;151.094;2023-04-24T04:46:08;2;2;
37290;PMS5003;23175;-33.706;151.094;2023-04-24T04:48:43;1;1;
37290;PMS5003;23175;-33.706;151.094;2023-04-24T04:51:13;3;2;
37290;PMS5003;23175;-33.706;151.094;2023-04-24T04:53:42;3;2;
37290;PMS5003;23175;-33.706;151.094;2023-04-24T04:56:13;4;2;
37290;PMS5003;23175;-33.706;151.094;2023-04-24T04:58:44;3;3;
37290;PMS5003;23175;-33.706;151.094;2023-04-24T05:01:14;1;1;
37290;PMS5003;23175;-33.706;151.094;2023-04-24T05:03:45;2;2;
37290;PMS5003;23175;-33.706;151.094;2023-04-24T05:06:14;4;2;
37290;PMS5003;23175;-33.706;151.094;2023-04-24T05:08:45;3;3;
37290;PMS5003;23175;-33.706;151.094;2023-04-24T05:11:15;9;3;
37290;PMS5003;23175;-33.706;151.094;2023-04-24T05:13:44;3;3;
37290;PMS5003;23175;-33.706;151.094;2023-04-24T05:16:15;5;2;
37290;PMS5003;23175;-33.706;151.094;2023-04-24T05:18:45;7;6;
37290;PMS5003;23175;-33.706;151.094;2023-04-24T05:21:15;2;2;
37290;PMS5003;23175;-33.706;151.094;2023-04-24T05:23:45;2;2;
37290;PMS5003;23175;-33.706;151.094;2023-04-24T05:26:15;3;3;
37290;PMS5003;23175;-33.706;151.094;2023-04-24T05:28:45;6;6;
37290;PMS5003;23175;-33.706;151.094;2023-04-24T05:31:15;8;4;
37290;PMS5003;23175;-33.706;151.094;2023-04-24T05:33:46;9;4;
37290;PMS5003;23175;-33.706;151.094;2023-04-24T05:36:16;7;6;
37290;PMS5003;23175;-33.706;151.094;2023-04-24T05:38:46;7;4;
37290;PMS5003;23175;-33.706;151.094;2023-04-24T05:41:16;9;9;
37290;PMS5003;23175;-33.706;151.094;2023-04-24T05:43:46;14;8;
37290;PMS5003;23175;-33.706;151.094;2023-04-24T05:46:16;5;4;
37290;PMS5003;23175;-33.706;151.094;2023-04-24T05:48:46;15;12;
37290;PMS5003;23175;-33.706;151.094;2023-04-24T05:51:16;5;3;
37290;PMS5003;23175;-33.706;151.094;2023-04-24T05:53:46;6;6;
37290;PMS5003;23175;-33.706;151.094;2023-04-24T05:56:18;11;9;
37290;PMS5003;23175;-33.706;151.094;2023-04-24T05:58:48;10;6;
37290;PMS5003;23175;-33.706;151.094;2023-04-24T06:01:18;8;5;
37290;PMS5003;23175;-33.706;151.094;2023-04-24T06:03:48;9;7;
37290;PMS5003;23175;-33.706;151.094;2023-04-24T06:06:19;13;9;
37290;PMS5003;23175;-33.706;151.094;2023-04-24T06:08:48;5;4;
37290;PMS5003;23175;-33.706;151.094;2023-04-24T06:11:19;12;9;
37290;PMS5003;23175;-33.706;151.094;2023-04-24T06:13:48;12;7;
37290;PMS5003;23175;-33.706;151.094;2023-04-24T06:16:19;3;2;
37290;PMS5003;23175;-33.706;151.094;2023-04-24T06:18:49;9;5;
37290;PMS5003;23175;-33.706;151.094;2023-04-24T06:21:19;11;10;
37290;PMS5003;23175;-33.706;151.094;2023-04-24T06:23:49;4;3;
37290;PMS5003;23175;-33.706;151.094;2023-04-24T06:26:19;5;5;
37290;PMS5003;23175;-33.706;151.094;2023-04-24T06:28:49;3;3;
37290;PMS5003;23175;-33.706;151.094;2023-04-24T06:31:19;8;4;
37290;PMS5003;23175;-33.706;151.094;2023-04-24T06:33:49;9;5;
37290;PMS5003;23175;-33.706;151.094;2023-04-24T06:36:20;7;6;
37290;PMS5003;23175;-33.706;151.094;2023-04-24T06:38:50;5;2;
37290;PMS5003;23175;-33.706;151.094;2023-04-24T06:41:21;7;6;
37290;PMS5003;23175;-33.706;151.094;2023-04-24T06:43:52;2;2;
37290;PMS5003;23175;-33.706;151.094;2023-04-24T06:46:22;6;4;
37290;PMS5003;23175;-33.706;151.094;2023-04-24T06:48:53;3;3;
37290;PMS5003;23175;-33.706;151.094;2023-04-24T06:51:23;6;4;
37290;PMS5003;23175;-33.706;151.094;2023-04-24T06:53:54;4;2;
37290;PMS5003;23175;-33.706;151.094;2023-04-24T06:56:24;5;3;
37290;PMS5003;23175;-33.706;151.094;2023-04-24T06:58:55;5;2;
37290;PMS5003;23175;-33.706;151.094;2023-04-24T07:01:25;6;4;
37290;PMS5003;23175;-33.706;151.094;2023-04-24T07:03:55;7;4;
37290;PMS5003;23175;-33.706;151.094;2023-04-24T07:06:24;6;5;
37290;PMS5003;23175;-33.706;151.094;2023-04-24T07:08:54;4;2;
37290;PMS5003;23175;-33.706;151.094;2023-04-24T07:11:24;4;4;
37290;PMS5003;23175;-33.706;151.094;2023-04-24T07:13:55;5;4;
37290;PMS5003;23175;-33.706;151.094;2023-04-24T07:16:24;6;3;
37290;PMS5003;23175;-33.706;151.094;2023-04-24T07:18:54;3;3;
37290;PMS5003;23175;-33.706;151.094;2023-04-24T07:21:24;8;6;
37290;PMS5003;23175;-33.706;151.094;2023-04-24T07:23:55;6;5;
37290;PMS5003;23175;-33.706;151.094;2023-04-24T07:26:24;7;4;
37290;PMS5003;23175;-33.706;151.094;2023-04-24T07:28:56;2;2;
37290;PMS5003;23175;-33.706;151.094;2023-04-24T07:31:27;0;0;
37290;PMS5003;23175;-33.706;151.094;2023-04-24T07:33:56;1;1;
37290;PMS5003;23175;-33.706;151.094;2023-04-24T07:36:26;1;1;
37290;PMS5003;23175;-33.706;151.094;2023-04-24T07:38:57;2;2;
37290;PMS5003;23175;-33.706;151.094;2023-04-24T07:41:27;3;2;
37290;PMS5003;23175;-33.706;151.094;2023-04-24T07:43:57;1;1;
37290;PMS5003;23175;-33.706;151.094;2023-04-24T07:46:27;2;2;
37290;PMS5003;23175;-33.706;151.094;2023-04-24T07:48:59;2;2;
37290;PMS5003;23175;-33.706;151.094;2023-04-24T07:51:30;2;2;
37290;PMS5003;23175;-33.706;151.094;2023-04-24T07:54:00;2;2;
37290;PMS5003;23175;-33.706;151.094;2023-04-24T07:56:30;3;0;
37290;PMS5003;23175;-33.706;151.094;2023-04-24T07:59:01;3;2;
37290;PMS5003;23175;-33.706;151.094;2023-04-24T08:01:30;5;2;
37290;PMS5003;23175;-33.706;151.094;2023-04-24T08:04:00;3;3;
37290;PMS5003;23175;-33.706;151.094;2023-04-24T08:06:30;3;3;
37290;PMS5003;23175;-33.706;151.094;2023-04-24T08:09:01;2;2;
37290;PMS5003;23175;-33.706;151.094;2023-04-24T08:11:31;1;1;
37290;PMS5003;23175;-33.706;151.094;2023-04-24T08:14:02;3;3;
37290;PMS5003;23175;-33.706;151.094;2023-04-24T08:16:34;4;1;
37290;PMS5003;23175;-33.706;151.094;2023-04-24T08:19:04;3;3;
37290;PMS5003;23175;-33.706;151.094;2023-04-24T08:21:35;3;2;
37290;PMS5003;23175;-33.706;151.094;2023-04-24T08:24:05;5;3;
37290;PMS5003;23175;-33.706;151.094;2023-04-24T08:26:35;2;2;
37290;PMS5003;23175;-33.706;151.094;2023-04-24T08:29:06;2;1;
37290;PMS5003;23175;-33.706;151.094;2023-04-24T08:31:36;4;2;
37290;PMS5003;23175;-33.706;151.094;2023-04-24T08:34:06;6;5;
37290;PMS5003;23175;-33.706;151.094;2023-04-24T08:36:36;5;5;
37290;PMS5003;23175;-33.706;151.094;2023-04-24T08:39:07;10;6;
37290;PMS5003;23175;-33.706;151.094;2023-04-24T08:41:37;9;9;
37290;PMS5003;23175;-33.706;151.094;2023-04-24T08:44:08;10;9;
37290;PMS5003;23175;-33.706;151.094;2023-04-24T08:46:39;7;7;
37290;PMS5003;23175;-33.706;151.094;2023-04-24T08:49:10;9;8;
37290;PMS5003;23175;-33.706;151.094;2023-04-24T08:51:40;5;4;
37290;PMS5003;23175;-33.706;151.094;2023-04-24T08:54:12;3;3;
37290;PMS5003;23175;-33.706;151.094;2023-04-24T08:56:43;1;1;
37290;PMS5003;23175;-33.706;151.094;2023-04-24T08:59:15;4;2;
37290;PMS5003;23175;-33.706;151.094;2023-04-24T09:01:45;3;2;
37290;PMS5003;23175;-33.706;151.094;2023-04-24T09:04:16;4;4;
37290;PMS5003;23175;-33.706;151.094;2023-04-24T09:06:48;11;4;
37290;PMS5003;23175;-33.706;151.094;2023-04-24T09:09:19;8;8;
37290;PMS5003;23175;-33.706;151.094;2023-04-24T09:11:51;9;8;
37290;PMS5003;23175;-33.706;151.094;2023-04-24T09:14:21;4;4;
37290;PMS5003;23175;-33.706;151.094;2023-04-24T09:16:52;6;3;
37290;PMS5003;23175;-33.706;151.094;2023-04-24T09:19:22;6;3;
37290;PMS5003;23175;-33.706;151.094;2023-04-24T09:21:53;3;3;
37290;PMS5003;23175;-33.706;151.094;2023-04-24T09:24:24;8;6;
37290;PMS5003;23175;-33.706;151.094;2023-04-24T09:26:56;4;4;
37290;PMS5003;23175;-33.706;151.094;2023-04-24T09:29:27;6;6;
37290;PMS5003;23175;-33.706;151.094;2023-04-24T09:31:58;7;5;
37290;PMS5003;23175;-33.706;151.094;2023-04-24T09:34:45;7;7;
37290;PMS5003;23175;-33.706;151.094;2023-04-24T09:37:27;13;9;
37290;PMS5003;23175;-33.706;151.094;2023-04-24T09:40:14;13;10;
37290;PMS5003;23175;-33.706;151.094;2023-04-24T09:42:46;11;6;
37290;PMS5003;23175;-33.706;151.094;2023-04-24T09:45:21;8;5;
37290;PMS5003;23175;-33.706;151.094;2023-04-24T09:47:55;6;5;
37290;PMS5003;23175;-33.706;151.094;2023-04-24T09:50:25;7;6;
37290;PMS5003;23175;-33.706;151.094;2023-04-24T09:52:57;9;7;
37290;PMS5003;23175;-33.706;151.094;2023-04-24T09:55:29;8;6;
37290;PMS5003;23175;-33.706;151.094;2023-04-24T09:58:01;9;8;
37290;PMS5003;23175;-33.706;151.094;2023-04-24T10:00:31;5;5;
37290;PMS5003;23175;-33.706;151.094;2023-04-24T10:03:03;8;7;
37290;PMS5003;23175;-33.706;151.094;2023-04-24T10:05:34;7;7;
37290;PMS5003;23175;-33.706;151.094;2023-04-24T10:08:05;4;4;
37290;PMS5003;23175;-33.706;151.094;2023-04-24T10:10:38;6;6;
37290;PMS5003;23175;-33.706;151.094;2023-04-24T10:13:09;14;10;
37290;PMS5003;23175;-33.706;151.094;2023-04-24T10:15:41;13;5;
37290;PMS5003;23175;-33.706;151.094;2023-04-24T10:18:11;5;5;
37290;PMS5003;23175;-33.706;151.094;2023-04-24T10:20:41;8;6;
37290;PMS5003;23175;-33.706;151.094;2023-04-24T10:23:11;8;8;
37290;PMS5003;23175;-33.706;151.094;2023-04-24T10:25:42;4;4;
37290;PMS5003;23175;-33.706;151.094;2023-04-24T10:28:13;11;10;
37290;PMS5003;23175;-33.706;151.094;2023-04-24T10:30:45;5;5;
37290;PMS5003;23175;-33.706;151.094;2023-04-24T10:33:15;7;5;
37290;PMS5003;23175;-33.706;151.094;2023-04-24T10:35:47;9;7;
37290;PMS5003;23175;-33.706;151.094;2023-04-24T10:38:24;5;5;
37290;PMS5003;23175;-33.706;151.094;2023-04-24T10:41:02;5;5;
37290;PMS5003;23175;-33.706;151.094;2023-04-24T10:43:36;8;6;
37290;PMS5003;23175;-33.706;151.094;2023-04-24T10:46:09;5;5;
37290;PMS5003;23175;-33.706;151.094;2023-04-24T10:48:44;10;8;
37290;PMS5003;23175;-33.706;151.094;2023-04-24T10:51:22;10;7;
37290;PMS5003;23175;-33.706;151.094;2023-04-24T10:54:22;8;4;
37290;PMS5003;23175;-33.706;151.094;2023-04-24T10:56:53;7;7;
37290;PMS5003;23175;-33.706;151.094;2023-04-24T11:00:10;12;11;
37290;PMS5003;23175;-33.706;151.094;2023-04-24T11:02:45;7;7;
37290;PMS5003;23175;-33.706;151.094;2023-04-24T11:05:16;7;7;
37290;PMS5003;23175;-33.706;151.094;2023-04-24T11:08:52;10;10;
37290;PMS5003;23175;-33.706;151.094;2023-04-24T11:11:31;3;3;
37290;PMS5003;23175;-33.706;151.094;2023-04-24T11:14:04;5;5;
37290;PMS5003;23175;-33.706;151.094;2023-04-24T11:16:37;8;8;
37290;PMS5003;23175;-33.706;151.094;2023-04-24T11:19:17;5;5;
37290;PMS5003;23175;-33.706;151.094;2023-04-24T11:21:55;3;3;
37290;PMS5003;23175;-33.706;151.094;2023-04-24T11:24:28;8;5;
37290;PMS5003;23175;-33.706;151.094;2023-04-24T11:27:06;5;3;
37290;PMS5003;23175;-33.706;151.094;2023-04-24T11:29:42;8;6;
37290;PMS5003;23175;-33.706;151.094;2023-04-24T11:32:19;4;3;
37290;PMS5003;23175;-33.706;151.094;2023-04-24T11:34:55;8;8;
37290;PMS5003;23175;-33.706;151.094;2023-04-24T11:37:27;18;12;
37290;PMS5003;23175;-33.706;151.094;2023-04-24T11:40:02;13;11;
37290;PMS5003;23175;-33.706;151.094;2023-04-24T11:42:34;15;15;
37290;PMS5003;23175;-33.706;151.094;2023-04-24T11:45:08;14;14;
37290;PMS5003;23175;-33.706;151.094;2023-04-24T11:47:40;11;11;
37290;PMS5003;23175;-33.706;151.094;2023-04-24T11:50:11;17;16;
37290;PMS5003;23175;-33.706;151.094;2023-04-24T11:52:43;13;13;
37290;PMS5003;23175;-33.706;151.094;2023-04-24T11:55:28;9;9;
37290;PMS5003;23175;-33.706;151.094;2023-04-24T11:57:58;16;14;
37290;PMS5003;23175;-33.706;151.094;2023-04-24T12:00:30;19;18;
37290;PMS5003;23175;-33.706;151.094;2023-04-24T12:03:04;33;30;
37290;PMS5003;23175;-33.706;151.094;2023-04-24T12:05:36;38;36;
37290;PMS5003;23175;-33.706;151.094;2023-04-24T12:08:07;26;25;
37290;PMS5003;23175;-33.706;151.094;2023-04-24T12:10:38;31;30;
37290;PMS5003;23175;-33.706;151.094;2023-04-24T12:13:09;23;23;
37290;PMS5003;23175;-33.706;151.094;2023-04-24T12:15:39;23;20;
37290;PMS5003;23175;-33.706;151.094;2023-04-24T12:18:11;28;26;
37290;PMS5003;23175;-33.706;151.094;2023-04-24T12:20:41;28;25;
37290;PMS5003;23175;-33.706;151.094;2023-04-24T12:23:11;21;21;
37290;PMS5003;23175;-33.706;151.094;2023-04-24T12:25:41;24;21;
37290;PMS5003;23175;-33.706;151.094;2023-04-24T12:28:12;21;19;
37290;PMS5003;23175;-33.706;151.094;2023-04-24T12:30:43;30;27;
37290;PMS5003;23175;-33.706;151.094;2023-04-24T12:33:17;24;22;
37290;PMS5003;23175;-33.706;151.094;2023-04-24T12:35:51;16;16;
37290;PMS5003;23175;-33.706;151.094;2023-04-24T12:38:22;18;18;
37290;PMS5003;23175;-33.706;151.094;2023-04-24T12:41:02;18;16;
37290;PMS5003;23175;-33.706;151.094;2023-04-24T12:43:33;14;14;
37290;PMS5003;23175;-33.706;151.094;2023-04-24T12:46:03;21;17;
37290;PMS5003;23175;-33.706;151.094;2023-04-24T12:48:33;20;19;
37290;PMS5003;23175;-33.706;151.094;2023-04-24T12:51:04;19;18;
37290;PMS5003;23175;-33.706;151.094;2023-04-24T12:53:34;14;14;
37290;PMS5003;23175;-33.706;151.094;2023-04-24T12:56:04;19;15;
37290;PMS5003;23175;-33.706;151.094;2023-04-24T12:58:34;21;20;
37290;PMS5003;23175;-33.706;151.094;2023-04-24T13:01:03;17;17;
37290;PMS5003;23175;-33.706;151.094;2023-04-24T13:03:34;19;19;
37290;PMS5003;23175;-33.706;151.094;2023-04-24T13:06:04;21;18;
37290;PMS5003;23175;-33.706;151.094;2023-04-24T13:08:34;24;22;
37290;PMS5003;23175;-33.706;151.094;2023-04-24T13:11:04;30;27;
37290;PMS5003;23175;-33.706;151.094;2023-04-24T13:13:35;16;12;
37290;PMS5003;23175;-33.706;151.094;2023-04-24T13:16:05;47;47;
37290;PMS5003;23175;-33.706;151.094;2023-04-24T13:18:35;54;51;
37290;PMS5003;23175;-33.706;151.094;2023-04-24T13:21:05;37;35;
37290;PMS5003;23175;-33.706;151.094;2023-04-24T13:23:36;31;31;
37290;PMS5003;23175;-33.706;151.094;2023-04-24T13:26:06;22;17;
37290;PMS5003;23175;-33.706;151.094;2023-04-24T13:28:36;20;18;
37290;PMS5003;23175;-33.706;151.094;2023-04-24T13:31:07;16;14;
37290;PMS5003;23175;-33.706;151.094;2023-04-24T13:33:37;22;19;
37290;PMS5003;23175;-33.706;151.094;2023-04-24T13:36:08;28;27;
37290;PMS5003;23175;-33.706;151.094;2023-04-24T13:38:38;56;54;
37290;PMS5003;23175;-33.706;151.094;2023-04-24T13:41:09;46;42;
37290;PMS5003;23175;-33.706;151.094;2023-04-24T13:43:39;47;47;
37290;PMS5003;23175;-33.706;151.094;2023-04-24T13:46:09;27;27;
37290;PMS5003;23175;-33.706;151.094;2023-04-24T13:48:39;25;23;
37290;PMS5003;23175;-33.706;151.094;2023-04-24T13:51:10;22;21;
37290;PMS5003;23175;-33.706;151.094;2023-04-24T13:53:40;16;16;
37290;PMS5003;23175;-33.706;151.094;2023-04-24T13:56:10;16;16;
37290;PMS5003;23175;-33.706;151.094;2023-04-24T13:58:41;13;13;
37290;PMS5003;23175;-33.706;151.094;2023-04-24T14:01:11;16;13;
37290;PMS5003;23175;-33.706;151.094;2023-04-24T14:03:42;19;17;
37290;PMS5003;23175;-33.706;151.094;2023-04-24T14:06:12;12;12;
37290;PMS5003;23175;-33.706;151.094;2023-04-24T14:08:42;17;15;
37290;PMS5003;23175;-33.706;151.094;2023-04-24T14:11:12;15;15;
37290;PMS5003;23175;-33.706;151.094;2023-04-24T14:13:42;19;18;
37290;PMS5003;23175;-33.706;151.094;2023-04-24T14:16:14;14;12;
37290;PMS5003;23175;-33.706;151.094;2023-04-24T14:18:45;12;11;
37290;PMS5003;23175;-33.706;151.094;2023-04-24T14:21:16;13;13;
37290;PMS5003;23175;-33.706;151.094;2023-04-24T14:23:46;18;16;
37290;PMS5003;23175;-33.706;151.094;2023-04-24T14:26:16;24;23;
37290;PMS5003;23175;-33.706;151.094;2023-04-24T14:28:47;18;18;
37290;PMS5003;23175;-33.706;151.094;2023-04-24T14:31:17;31;30;
37290;PMS5003;23175;-33.706;151.094;2023-04-24T14:33:47;40;39;
37290;PMS5003;23175;-33.706;151.094;2023-04-24T14:36:17;42;40;
37290;PMS5003;23175;-33.706;151.094;2023-04-24T14:38:47;88;80;
37290;PMS5003;23175;-33.706;151.094;2023-04-24T14:41:18;90;85;
37290;PMS5003;23175;-33.706;151.094;2023-04-24T14:43:49;86;79;
37290;PMS5003;23175;-33.706;151.094;2023-04-24T14:46:19;87;81;
37290;PMS5003;23175;-33.706;151.094;2023-04-24T14:48:49;70;69;
37290;PMS5003;23175;-33.706;151.094;2023-04-24T14:51:21;57;54;
37290;PMS5003;23175;-33.706;151.094;2023-04-24T14:53:52;53;48;
37290;PMS5003;23175;-33.706;151.094;2023-04-24T14:56:24;38;37;
37290;PMS5003;23175;-33.706;151.094;2023-04-24T14:58:55;47;42;
37290;PMS5003;23175;-33.706;151.094;2023-04-24T15:01:25;36;32;
37290;PMS5003;23175;-33.706;151.094;2023-04-24T15:03:55;23;21;
37290;PMS5003;23175;-33.706;151.094;2023-04-24T15:06:25;19;16;
37290;PMS5003;23175;-33.706;151.094;2023-04-24T15:08:55;21;18;
37290;PMS5003;23175;-33.706;151.094;2023-04-24T15:11:25;21;18;
37290;PMS5003;23175;-33.706;151.094;2023-04-24T15:13:56;17;17;
37290;PMS5003;23175;-33.706;151.094;2023-04-24T15:16:26;19;17;
37290;PMS5003;23175;-33.706;151.094;2023-04-24T15:18:56;31;30;
37290;PMS5003;23175;-33.706;151.094;2023-04-24T15:21:26;72;69;
37290;PMS5003;23175;-33.706;151.094;2023-04-24T15:23:57;67;66;
37290;PMS5003;23175;-33.706;151.094;2023-04-24T15:26:28;76;71;
37290;PMS5003;23175;-33.706;151.094;2023-04-24T15:28:58;58;56;
37290;PMS5003;23175;-33.706;151.094;2023-04-24T15:31:29;74;66;
37290;PMS5003;23175;-33.706;151.094;2023-04-24T15:33:59;105;95;
37290;PMS5003;23175;-33.706;151.094;2023-04-24T15:36:30;93;84;
37290;PMS5003;23175;-33.706;151.094;2023-04-24T15:39:01;99;92;
37290;PMS5003;23175;-33.706;151.094;2023-04-24T15:41:32;90;79;
37290;PMS5003;23175;-33.706;151.094;2023-04-24T15:44:02;79;69;
37290;PMS5003;23175;-33.706;151.094;2023-04-24T15:46:32;90;77;
37290;PMS5003;23175;-33.706;151.094;2023-04-24T15:49:04;77;77;
37290;PMS5003;23175;-33.706;151.094;2023-04-24T15:51:34;67;60;
37290;PMS5003;23175;-33.706;151.094;2023-04-24T15:54:04;56;53;
37290;PMS5003;23175;-33.706;151.094;2023-04-24T15:56:36;53;53;
37290;PMS5003;23175;-33.706;151.094;2023-04-24T15:59:06;59;55;
37290;PMS5003;23175;-33.706;151.094;2023-04-24T16:01:41;56;52;
37290;PMS5003;23175;-33.706;151.094;2023-04-24T16:04:12;64;57;
37290;PMS5003;23175;-33.706;151.094;2023-04-24T16:06:41;56;51;
37290;PMS5003;23175;-33.706;151.094;2023-04-24T16:09:11;47;46;
37290;PMS5003;23175;-33.706;151.094;2023-04-24T16:11:41;44;41;
37290;PMS5003;23175;-33.706;151.094;2023-04-24T16:14:11;47;45;
37290;PMS5003;23175;-33.706;151.094;2023-04-24T16:16:41;40;40;